createdAt,value
2019-05-17T00:00:37.702Z,99.90
2019-05-17T00:03:07.327Z,99.90
2019-05-17T00:05:37.582Z,99.90
2019-05-17T00:08:07.824Z,99.90
2019-05-17T00:10:37.866Z,99.90
2019-05-17T00:13:10.981Z,99.90
2019-05-17T00:15:40.590Z,99.90
2019-05-17T00:18:10.170Z,99.90
2019-05-17T00:20:39.736Z,99.90
2019-05-17T00:23:09.328Z,99.90
2019-05-17T00:25:40.066Z,99.90
2019-05-17T00:28:09.662Z,99.90
2019-05-17T00:30:40.197Z,99.90
2019-05-17T00:33:09.742Z,99.90
2019-05-17T00:35:39.367Z,99.90
2019-05-17T00:38:09.022Z,99.90
2019-05-17T00:40:38.604Z,99.90
2019-05-17T00:43:08.195Z,99.90
2019-05-17T00:45:37.915Z,99.90
2019-05-17T00:48:07.618Z,99.90
2019-05-17T00:50:38.032Z,99.90
2019-05-17T00:53:07.792Z,99.90
2019-05-17T00:55:37.372Z,99.90
2019-05-17T00:58:07.079Z,99.90
2019-05-17T01:00:37.765Z,99.90
2019-05-17T01:03:07.575Z,99.90
2019-05-17T01:05:37.211Z,99.90
2019-05-17T01:08:07.465Z,99.90
2019-05-17T01:10:37.238Z,99.90
2019-05-17T01:13:07.140Z,99.90
2019-05-17T01:15:37.125Z,99.90
2019-05-17T01:18:07.395Z,99.90
2019-05-17T01:20:37.289Z,99.90
2019-05-17T01:23:07.869Z,99.90
2019-05-17T01:25:37.703Z,99.90
2019-05-17T01:28:08.379Z,99.90
2019-05-17T01:30:38.053Z,99.90
2019-05-17T01:33:07.646Z,99.90
2019-05-17T01:35:37.684Z,99.90
2019-05-17T01:38:07.638Z,99.90
2019-05-17T01:40:37.554Z,99.90
2019-05-17T01:43:07.853Z,99.90
2019-05-17T01:45:38.665Z,99.90
2019-05-17T01:48:08.314Z,99.90
2019-05-17T01:50:37.927Z,99.90
2019-05-17T01:53:07.660Z,99.90
2019-05-17T01:55:37.716Z,99.90
2019-05-17T01:58:07.646Z,99.90
2019-05-17T02:00:37.858Z,99.90
2019-05-17T02:03:07.649Z,99.90
2019-05-17T02:05:37.595Z,99.90
2019-05-17T02:08:07.373Z,99.90
2019-05-17T02:10:37.608Z,99.90
2019-05-17T02:13:07.423Z,99.90
2019-05-17T02:15:37.900Z,99.90
2019-05-17T02:18:07.666Z,99.90
2019-05-17T02:20:37.581Z,99.90
2019-05-17T02:23:07.625Z,99.90
2019-05-17T02:25:37.386Z,99.90
2019-05-17T02:28:06.996Z,99.90
2019-05-17T02:30:36.683Z,99.90
2019-05-17T02:33:06.417Z,99.90
2019-05-17T02:35:36.015Z,99.90
2019-05-17T02:38:05.776Z,99.90
2019-05-17T02:40:35.369Z,99.90
2019-05-17T02:43:05.133Z,99.90
2019-05-17T02:45:34.710Z,99.90
2019-05-17T02:48:04.541Z,99.90
2019-05-17T02:50:34.188Z,99.90
2019-05-17T02:53:04.843Z,99.90
2019-05-17T02:55:34.651Z,99.90
2019-05-17T02:58:04.251Z,99.90
2019-05-17T03:00:34.462Z,99.90
2019-05-17T03:03:04.176Z,99.90
2019-05-17T03:05:34.228Z,99.90
2019-05-17T03:08:04.740Z,99.90
2019-05-17T03:10:34.408Z,99.90
2019-05-17T03:13:04.499Z,99.90
2019-05-17T03:15:35.263Z,99.90
2019-05-17T03:18:04.842Z,99.90
2019-05-17T03:20:34.453Z,99.90
2019-05-17T03:23:04.270Z,99.90
2019-05-17T03:25:34.059Z,99.90
2019-05-17T03:28:03.791Z,99.90
2019-05-17T03:30:36.646Z,99.90
2019-05-17T03:33:07.191Z,99.90
2019-05-17T03:35:38.333Z,99.90
2019-05-17T03:38:07.709Z,99.90
2019-05-17T03:41:03.536Z,99.90
2019-05-17T03:43:08.756Z,99.90
2019-05-17T03:45:42.482Z,99.90
2019-05-17T03:48:12.933Z,99.90
2019-05-17T03:50:43.583Z,99.90
2019-05-17T03:53:13.510Z,99.90
2019-05-17T03:55:43.166Z,99.90
2019-05-17T03:58:13.015Z,99.90
2019-05-17T04:00:43.027Z,99.90
2019-05-17T04:03:14.453Z,99.90
2019-05-17T04:05:44.128Z,99.90
2019-05-17T04:08:14.151Z,99.90
2019-05-17T04:10:43.925Z,99.90
2019-05-17T04:13:13.486Z,99.90
2019-05-17T04:15:43.497Z,99.90
2019-05-17T04:18:13.393Z,99.90
2019-05-17T04:20:43.990Z,99.90
2019-05-17T04:23:13.601Z,99.90
2019-05-17T04:25:43.758Z,99.90
2019-05-17T04:28:13.926Z,99.90
2019-05-17T04:30:43.668Z,99.90
2019-05-17T04:33:13.369Z,99.90
2019-05-17T04:35:43.280Z,99.90
2019-05-17T04:38:13.066Z,99.90
2019-05-17T04:40:43.339Z,99.90
2019-05-17T04:43:13.721Z,99.90
2019-05-17T04:45:43.577Z,99.90
2019-05-17T04:48:13.521Z,99.90
2019-05-17T04:50:43.246Z,99.90
2019-05-17T04:53:13.552Z,99.90
2019-05-17T04:55:43.433Z,99.90
2019-05-17T04:58:13.691Z,99.90
2019-05-17T05:00:43.457Z,99.90
2019-05-17T05:03:13.133Z,99.90
2019-05-17T05:05:43.050Z,99.90
2019-05-17T05:08:13.182Z,99.90
2019-05-17T05:10:43.065Z,99.90
2019-05-17T05:13:13.544Z,99.90
2019-05-17T05:15:44.518Z,99.90
2019-05-17T05:18:14.601Z,99.90
2019-05-17T05:20:45.161Z,99.90
2019-05-17T05:23:14.739Z,99.90
2019-05-17T05:25:44.466Z,99.90
2019-05-17T05:28:14.000Z,99.90
2019-05-17T05:30:43.620Z,99.90
2019-05-17T05:33:13.278Z,99.90
2019-05-17T05:35:43.903Z,99.90
2019-05-17T05:38:14.566Z,99.90
2019-05-17T05:40:44.168Z,99.90
2019-05-17T05:43:14.777Z,99.90
2019-05-17T05:45:44.337Z,99.90
2019-05-17T05:48:13.868Z,99.90
2019-05-17T05:50:43.859Z,99.90
2019-05-17T05:53:13.441Z,99.90
2019-05-17T05:55:43.381Z,99.90
2019-05-17T05:58:13.120Z,99.90
2019-05-17T06:00:43.142Z,99.90
2019-05-17T06:03:12.789Z,99.90
2019-05-17T06:05:42.640Z,99.90
2019-05-17T06:08:12.587Z,99.90
2019-05-17T06:10:43.161Z,99.90
2019-05-17T06:13:13.709Z,99.90
2019-05-17T06:15:43.330Z,99.90
2019-05-17T06:18:12.941Z,99.90
2019-05-17T06:20:42.533Z,99.90
2019-05-17T06:23:12.544Z,99.90
2019-05-17T06:25:43.465Z,99.90
2019-05-17T06:28:13.527Z,99.90
2019-05-17T06:30:43.369Z,99.90
2019-05-17T06:33:26.816Z,99.90
2019-05-17T06:35:44.238Z,99.90
2019-05-17T06:38:13.759Z,99.90
2019-05-17T06:40:43.420Z,99.90
2019-05-17T06:43:13.436Z,99.90
2019-05-17T06:45:43.101Z,99.90
2019-05-17T06:48:12.611Z,99.90
2019-05-17T06:50:42.847Z,99.90
2019-05-17T06:53:12.924Z,99.90
2019-05-17T06:55:43.431Z,99.90
2019-05-17T06:58:12.987Z,99.90
2019-05-17T07:00:42.546Z,99.90
2019-05-17T07:03:12.114Z,99.90
2019-05-17T07:05:43.527Z,99.90
2019-05-17T07:08:13.210Z,99.90
2019-05-17T07:10:42.732Z,99.90
2019-05-17T07:13:12.310Z,99.90
2019-05-17T07:15:47.441Z,99.90
2019-05-17T07:18:13.120Z,99.90
2019-05-17T07:20:42.745Z,99.90
2019-05-17T07:23:12.326Z,99.90
2019-05-17T07:25:42.003Z,99.90
2019-05-17T07:28:11.615Z,99.90
2019-05-17T07:30:41.435Z,99.90
2019-05-17T07:33:11.539Z,99.90
2019-05-17T07:35:41.297Z,99.90
2019-05-17T07:38:11.010Z,99.90
2019-05-17T07:40:40.769Z,99.90
2019-05-17T07:43:13.899Z,99.90
2019-05-17T07:45:41.571Z,99.90
2019-05-17T07:48:11.113Z,99.90
2019-05-17T07:50:40.722Z,99.90
2019-05-17T07:53:10.611Z,99.90
2019-05-17T07:55:41.217Z,99.90
2019-05-17T07:58:10.820Z,99.90
2019-05-17T08:00:40.468Z,99.90
2019-05-17T08:03:12.612Z,99.90
2019-05-17T08:05:41.493Z,99.50
2019-05-17T08:08:11.181Z,99.90
2019-05-17T08:10:41.376Z,99.90
2019-05-17T08:13:25.847Z,99.90
2019-05-17T08:15:42.299Z,99.70
2019-05-17T08:18:11.931Z,98.50
2019-05-17T08:20:41.565Z,97.90
2019-05-17T08:23:11.364Z,98.20
2019-05-17T08:25:51.965Z,98.40
2019-05-17T08:28:12.222Z,99.50
2019-05-17T08:30:41.785Z,98.90
2019-05-17T08:33:11.391Z,98.40
2019-05-17T08:35:40.917Z,98.10
2019-05-17T08:38:10.710Z,98.60
2019-05-17T08:40:40.833Z,98.70
2019-05-17T08:43:11.557Z,99.10
2019-05-17T08:45:41.115Z,96.50
2019-05-17T08:48:10.646Z,96.90
2019-05-17T08:50:40.636Z,96.90
2019-05-17T08:53:10.810Z,96.10
2019-05-17T08:55:40.986Z,97.10
2019-05-17T08:58:10.795Z,94.90
2019-05-17T09:00:40.949Z,95.30
2019-05-17T09:03:11.025Z,95.20
2019-05-17T09:05:41.815Z,93.80
2019-05-17T09:08:11.797Z,94.90
2019-05-17T09:10:41.363Z,95.00
2019-05-17T09:13:14.573Z,94.10
2019-05-17T09:15:43.216Z,91.80
2019-05-17T09:18:13.800Z,93.30
2019-05-17T09:20:43.490Z,91.30
2019-05-17T09:23:13.236Z,92.50
2019-05-17T09:25:50.287Z,91.90
2019-05-17T09:28:21.564Z,92.50
2019-05-17T09:30:51.235Z,92.40
2019-05-17T09:33:20.946Z,91.00
2019-05-17T09:35:50.545Z,90.20
2019-05-17T09:38:21.149Z,90.50
2019-05-17T09:40:50.820Z,89.40
2019-05-17T09:43:20.770Z,88.80
2019-05-17T09:45:51.030Z,90.90
2019-05-17T09:48:20.872Z,89.70
2019-05-17T09:50:50.736Z,86.80
2019-05-17T09:53:20.468Z,88.60
2019-05-17T09:55:50.354Z,87.30
2019-05-17T09:58:21.613Z,86.90
2019-05-17T10:00:51.362Z,82.80
2019-05-17T10:03:23.733Z,90.30
2019-05-17T10:05:53.331Z,86.20
2019-05-17T10:08:22.946Z,83.10
2019-05-17T10:11:04.775Z,82.10
2019-05-17T10:13:24.036Z,83.40
2019-05-17T10:15:53.605Z,87.30
2019-05-17T10:18:25.168Z,89.20
2019-05-17T10:20:54.781Z,87.10
2019-05-17T10:23:24.383Z,83.50
2019-05-17T10:25:53.985Z,84.60
2019-05-17T10:28:23.577Z,82.90
2019-05-17T10:30:53.138Z,82.80
2019-05-17T10:33:22.717Z,87.10
2019-05-17T10:35:52.361Z,85.40
2019-05-17T10:38:21.992Z,87.20
2019-05-17T10:40:51.596Z,82.50
2019-05-17T10:43:21.193Z,88.10
2019-05-17T10:45:50.829Z,83.50
2019-05-17T10:48:21.167Z,84.60
2019-05-17T10:50:50.895Z,82.40
2019-05-17T10:53:20.596Z,82.40
2019-05-17T10:55:50.203Z,79.60
2019-05-17T10:58:22.404Z,81.30
2019-05-17T11:00:52.109Z,79.90
2019-05-17T11:03:22.073Z,80.40
2019-05-17T11:05:52.028Z,80.30
2019-05-17T11:08:21.677Z,79.40
2019-05-17T11:10:51.215Z,80.10
2019-05-17T11:13:20.789Z,82.40
2019-05-17T11:15:50.369Z,81.10
2019-05-17T11:18:19.891Z,77.80
2019-05-17T11:20:49.500Z,76.50
2019-05-17T11:23:19.370Z,78.10
2019-05-17T11:25:48.951Z,79.80
2019-05-17T11:28:18.599Z,77.80
2019-05-17T11:30:48.230Z,80.10
2019-05-17T11:33:17.868Z,81.10
2019-05-17T11:35:47.420Z,81.40
2019-05-17T11:38:17.099Z,78.00
2019-05-17T11:40:49.783Z,78.70
2019-05-17T11:43:18.001Z,78.60
2019-05-17T11:45:47.629Z,78.20
2019-05-17T11:48:17.322Z,78.50
2019-05-17T11:50:46.957Z,75.70
2019-05-17T11:53:16.522Z,77.10
2019-05-17T11:55:46.092Z,78.80
2019-05-17T11:58:15.920Z,73.90
2019-05-17T12:00:46.049Z,72.20
2019-05-17T12:03:15.634Z,73.80
2019-05-17T12:05:45.277Z,71.00
2019-05-17T12:08:16.732Z,72.10
2019-05-17T12:10:46.882Z,72.40
2019-05-17T12:13:16.665Z,71.90
2019-05-17T12:15:46.384Z,76.60
2019-05-17T12:18:16.152Z,77.40
2019-05-17T12:20:46.358Z,76.00
2019-05-17T12:23:17.031Z,75.30
2019-05-17T12:25:46.732Z,76.00
2019-05-17T12:28:16.415Z,77.40
2019-05-17T12:30:47.112Z,79.30
2019-05-17T12:33:16.851Z,76.10
2019-05-17T12:35:46.604Z,72.10
2019-05-17T12:38:16.287Z,72.80
2019-05-17T12:40:45.958Z,72.50
2019-05-17T12:43:15.640Z,74.70
2019-05-17T12:45:59.480Z,75.20
2019-05-17T12:48:17.766Z,78.60
2019-05-17T12:50:47.362Z,75.40
2019-05-17T12:53:19.733Z,72.80
2019-05-17T12:55:49.302Z,71.20
2019-05-17T12:58:20.363Z,71.90
2019-05-17T13:00:49.967Z,73.20
2019-05-17T13:03:21.891Z,69.40
2019-05-17T13:05:51.513Z,75.80
2019-05-17T13:08:21.194Z,70.30
2019-05-17T13:10:50.880Z,74.40
2019-05-17T13:13:20.478Z,72.10
2019-05-17T13:15:50.025Z,76.90
2019-05-17T13:18:19.595Z,74.10
2019-05-17T13:20:49.166Z,75.20
2019-05-17T13:23:18.756Z,73.60
2019-05-17T13:25:48.313Z,75.90
2019-05-17T13:28:17.876Z,75.20
2019-05-17T13:30:47.429Z,80.70
2019-05-17T13:33:17.054Z,76.80
2019-05-17T13:35:46.613Z,78.10
2019-05-17T13:38:16.175Z,78.20
2019-05-17T13:40:45.931Z,77.40
2019-05-17T13:43:15.649Z,75.20
2019-05-17T13:45:46.744Z,74.20
2019-05-17T13:48:16.362Z,76.90
2019-05-17T13:50:45.973Z,77.60
2019-05-17T13:53:15.655Z,75.10
2019-05-17T13:55:45.278Z,72.80
2019-05-17T13:58:14.874Z,75.50
2019-05-17T14:00:44.462Z,71.70
2019-05-17T14:03:14.106Z,71.50
2019-05-17T14:05:43.647Z,71.80
2019-05-17T14:08:13.172Z,71.70
2019-05-17T14:10:42.734Z,71.10
2019-05-17T14:13:12.359Z,73.60
2019-05-17T14:15:41.951Z,72.90
2019-05-17T14:18:11.769Z,75.30
2019-05-17T14:20:41.389Z,75.70
2019-05-17T14:23:11.073Z,72.10
2019-05-17T14:25:40.777Z,75.50
2019-05-17T14:28:11.482Z,73.90
2019-05-17T14:30:41.255Z,71.10
2019-05-17T14:33:12.973Z,71.90
2019-05-17T14:35:42.538Z,71.80
2019-05-17T14:38:12.097Z,71.70
2019-05-17T14:43:13.026Z,70.70
2019-05-17T14:45:42.773Z,71.80
2019-05-17T14:48:12.350Z,71.10
2019-05-17T14:50:41.913Z,68.40
2019-05-17T14:53:12.612Z,70.20
2019-05-17T14:55:42.141Z,72.40
2019-05-17T14:58:11.828Z,71.10
2019-05-17T15:00:41.468Z,73.60
2019-05-17T15:03:11.030Z,70.50
2019-05-17T15:05:40.612Z,70.70
2019-05-17T15:08:10.274Z,69.20
2019-05-17T15:10:39.861Z,70.30
2019-05-17T15:13:09.419Z,69.60
2019-05-17T15:15:38.971Z,70.20
2019-05-17T15:18:09.753Z,68.10
2019-05-17T15:20:40.716Z,66.80
2019-05-17T15:23:10.366Z,67.20
2019-05-17T15:25:40.154Z,68.70
2019-05-17T15:28:09.759Z,71.60
2019-05-17T15:30:39.396Z,74.40
2019-05-17T15:33:09.104Z,74.40
2019-05-17T15:35:38.699Z,74.20
2019-05-17T15:38:10.959Z,76.60
2019-05-17T15:40:39.593Z,75.80
2019-05-17T15:43:09.279Z,75.00
2019-05-17T15:45:38.791Z,73.50
2019-05-17T15:48:08.369Z,72.80
2019-05-17T15:50:39.292Z,70.80
2019-05-17T15:53:08.937Z,68.80
2019-05-17T15:55:38.597Z,68.50
2019-05-17T15:58:08.125Z,65.10
2019-05-17T16:00:37.766Z,62.90
2019-05-17T16:03:07.297Z,62.70
2019-05-17T16:05:37.927Z,64.40
2019-05-17T16:08:07.468Z,65.50
2019-05-17T16:10:37.016Z,62.40
2019-05-17T16:15:46.370Z,64.70
2019-05-17T16:18:15.929Z,66.50
2019-05-17T16:20:45.511Z,67.70
2019-05-17T16:23:15.172Z,69.10
2019-05-17T16:25:44.977Z,72.30
2019-05-17T16:28:15.052Z,73.30
2019-05-17T16:30:45.253Z,73.90
2019-05-17T16:33:15.076Z,74.80
2019-05-17T16:35:44.705Z,74.70
2019-05-17T16:38:14.459Z,76.30
2019-05-17T16:40:47.537Z,77.10
2019-05-17T16:43:18.607Z,79.00
2019-05-17T16:45:48.474Z,79.90
2019-05-17T16:48:18.193Z,82.30
2019-05-17T16:50:47.809Z,83.40
2019-05-17T16:53:17.624Z,84.40
2019-05-17T16:55:48.635Z,85.10
2019-05-17T16:58:18.493Z,85.80
2019-05-17T17:00:48.660Z,86.20
2019-05-17T17:03:18.468Z,86.30
2019-05-17T17:05:48.145Z,85.00
2019-05-17T17:08:17.853Z,86.00
2019-05-17T17:10:55.727Z,84.40
2019-05-17T17:13:32.796Z,85.10
2019-05-17T17:15:56.726Z,85.00
2019-05-17T17:18:26.257Z,83.90
2019-05-17T17:20:55.959Z,83.30
2019-05-17T17:23:25.635Z,84.20
2019-05-17T17:25:55.292Z,84.90
2019-05-17T17:28:25.591Z,83.80
2019-05-17T17:30:55.243Z,84.40
2019-05-17T17:33:24.956Z,85.90
2019-05-17T17:35:54.716Z,86.70
2019-05-17T17:38:24.344Z,87.10
2019-05-17T17:40:53.953Z,85.70
2019-05-17T17:43:23.529Z,86.10
2019-05-17T17:45:53.108Z,87.40
2019-05-17T17:48:22.722Z,87.10
2019-05-17T17:50:52.393Z,86.20
2019-05-17T17:53:22.119Z,86.40
2019-05-17T17:55:51.981Z,88.30
2019-05-17T17:58:22.188Z,88.90
2019-05-17T18:00:51.957Z,89.20
2019-05-17T18:03:21.559Z,89.20
2019-05-17T18:05:51.228Z,90.20
2019-05-17T18:08:20.904Z,90.50
2019-05-17T18:10:50.554Z,90.60
2019-05-17T18:13:20.148Z,90.80
2019-05-17T18:15:50.448Z,91.20
2019-05-17T18:18:20.173Z,91.50
2019-05-17T18:20:49.875Z,92.00
2019-05-17T18:23:23.183Z,92.10
2019-05-17T18:25:50.824Z,92.40
2019-05-17T18:28:20.445Z,92.80
2019-05-17T18:30:50.140Z,93.10
2019-05-17T18:33:19.699Z,93.10
2019-05-17T18:35:49.290Z,93.30
2019-05-17T18:38:20.994Z,93.80
2019-05-17T18:40:50.899Z,94.50
2019-05-17T18:43:21.444Z,94.50
2019-05-17T18:45:51.054Z,94.40
2019-05-17T18:48:20.669Z,94.30
2019-05-17T18:50:59.882Z,94.60
2019-05-17T18:53:40.334Z,94.50
2019-05-17T18:56:09.921Z,94.70
2019-05-17T18:58:39.527Z,95.00
2019-05-17T19:01:09.165Z,94.70
2019-05-17T19:03:38.684Z,95.00
2019-05-17T19:06:08.375Z,94.70
2019-05-17T19:08:37.934Z,94.50
2019-05-17T19:11:07.656Z,94.70
2019-05-17T19:13:37.317Z,94.50
2019-05-17T19:16:06.913Z,94.70
2019-05-17T19:18:36.463Z,95.10
2019-05-17T19:21:06.132Z,94.90
2019-05-17T19:23:35.688Z,95.20
2019-05-17T19:26:05.373Z,95.10
2019-05-17T19:28:34.961Z,95.60
2019-05-17T19:31:04.593Z,95.50
2019-05-17T19:33:34.169Z,95.30
2019-05-17T19:36:03.763Z,95.50
2019-05-17T19:38:33.412Z,95.90
2019-05-17T19:41:03.051Z,96.00
2019-05-17T19:43:32.577Z,95.90
2019-05-17T19:46:03.265Z,95.40
2019-05-17T19:48:33.874Z,95.40
2019-05-17T19:51:03.480Z,95.10
2019-05-17T19:53:33.049Z,95.20
2019-05-17T19:56:02.629Z,95.60
2019-05-17T19:58:32.188Z,95.30
2019-05-17T20:01:01.780Z,94.80
2019-05-17T20:03:31.378Z,95.00
2019-05-17T20:06:00.970Z,94.90
2019-05-17T20:08:30.540Z,95.00
2019-05-17T20:11:00.082Z,94.60
2019-05-17T20:13:29.707Z,95.20
2019-05-17T20:15:59.257Z,95.50
2019-05-17T20:18:28.800Z,95.00
2019-05-17T20:20:59.351Z,95.10
2019-05-17T20:23:28.903Z,94.70
2019-05-17T20:25:58.595Z,94.70
2019-05-17T20:28:28.205Z,94.70
2019-05-17T20:30:58.738Z,95.00
2019-05-17T20:33:28.277Z,94.90
2019-05-17T20:35:57.873Z,94.80
2019-05-17T20:38:27.436Z,94.80
2019-05-17T20:40:57.003Z,94.60
2019-05-17T20:43:26.789Z,95.20
2019-05-17T20:45:56.372Z,95.00
2019-05-17T20:48:26.220Z,94.80
2019-05-17T20:50:55.900Z,95.00
2019-05-17T20:53:25.473Z,95.40
2019-05-17T20:55:55.044Z,96.00
2019-05-17T20:58:24.633Z,95.70
2019-05-17T21:00:54.249Z,95.60
2019-05-17T21:03:23.842Z,95.80
2019-05-17T21:05:53.400Z,95.90
2019-05-17T21:08:26.047Z,95.80
2019-05-17T21:10:54.225Z,96.00
2019-05-17T21:13:23.796Z,95.70
2019-05-17T21:15:53.320Z,96.50
2019-05-17T21:18:22.893Z,96.40
2019-05-17T21:20:52.436Z,97.00
2019-05-17T21:23:21.991Z,96.80
2019-05-17T21:25:51.568Z,96.80
2019-05-17T21:28:21.157Z,97.10
2019-05-17T21:30:50.795Z,96.70
2019-05-17T21:33:20.374Z,97.20
2019-05-17T21:35:50.039Z,97.20
2019-05-17T21:38:19.597Z,97.60
2019-05-17T21:40:49.164Z,97.60
2019-05-17T21:43:18.737Z,98.00
2019-05-17T21:46:01.052Z,97.90
2019-05-17T21:48:19.586Z,98.20
2019-05-17T21:50:49.164Z,98.00
2019-05-17T21:53:18.718Z,98.20
2019-05-17T21:55:48.251Z,98.40
2019-05-17T21:58:20.318Z,98.30
2019-05-17T22:01:16.483Z,98.20
2019-05-17T22:03:46.276Z,98.40
2019-05-17T22:06:16.033Z,98.00
2019-05-17T22:08:45.764Z,98.40
2019-05-17T22:11:15.326Z,98.30
2019-05-17T22:13:44.910Z,98.00
2019-05-17T22:16:19.529Z,98.20
2019-05-17T22:18:46.212Z,98.30
2019-05-17T22:21:15.863Z,98.40
2019-05-17T22:23:45.437Z,98.40
2019-05-17T22:26:15.033Z,98.80
2019-05-17T22:28:44.639Z,98.40
2019-05-17T22:31:14.278Z,98.90
2019-05-17T22:33:43.812Z,98.70
2019-05-17T22:36:13.377Z,99.00
2019-05-17T22:38:42.934Z,98.90
2019-05-17T22:41:12.525Z,99.20
2019-05-17T22:43:42.090Z,98.80
2019-05-17T22:46:11.668Z,99.00
2019-05-17T22:48:41.237Z,99.40
2019-05-17T22:51:10.816Z,99.30
2019-05-17T22:53:40.422Z,99.50
2019-05-17T22:56:09.972Z,99.70
2019-05-17T22:58:39.583Z,99.90
2019-05-17T23:01:09.167Z,99.70
2019-05-17T23:03:38.727Z,99.90
2019-05-17T23:06:08.455Z,99.80
2019-05-17T23:08:44.321Z,99.80
2019-05-17T23:11:13.917Z,99.90
2019-05-17T23:13:43.493Z,99.70
2019-05-17T23:16:13.940Z,99.90
2019-05-17T23:19:02.611Z,99.90
2019-05-17T23:21:33.252Z,99.90
2019-05-17T23:24:04.036Z,99.90
2019-05-17T23:26:33.721Z,99.90
2019-05-17T23:29:03.550Z,99.90
2019-05-17T23:31:33.141Z,99.90
2019-05-17T23:34:02.704Z,99.90
2019-05-17T23:36:32.426Z,99.90
2019-05-17T23:39:02.088Z,99.90
2019-05-17T23:41:32.851Z,99.90
2019-05-17T23:44:02.557Z,99.90
2019-05-17T23:46:32.124Z,99.90
2019-05-17T23:49:01.705Z,99.90
2019-05-17T23:51:31.334Z,99.90
2019-05-17T23:54:00.942Z,99.90
2019-05-17T23:56:30.568Z,99.90
2019-05-17T23:59:00.140Z,99.90
